sensor_id;sensor_type;location;lat;lon;timestamp;pressure;altitude;pressure_sealevel;temperature;humidity
9110;BME280;4590;51.462;6.692;2022-11-20T00:01:07;101081.97;;;1.46;60.35
9110;BME280;4590;51.462;6.692;2022-11-20T00:03:33;101085.72;;;1.45;60.77
9110;BME280;4590;51.462;6.692;2022-11-20T00:06:01;101077.00;;;1.43;60.98
9110;BME280;4590;51.462;6.692;2022-11-20T00:08:26;101072.63;;;1.42;60.62
9110;BME280;4590;51.462;6.692;2022-11-20T00:10:51;101078.06;;;1.42;60.79
9110;BME280;4590;51.462;6.692;2022-11-20T00:13:17;101071.84;;;1.42;60.73
9110;BME280;4590;51.462;6.692;2022-11-20T00:15:42;101075.13;;;1.44;60.98
9110;BME280;4590;51.462;6.692;2022-11-20T00:18:07;101077.84;;;1.44;61.19
9110;BME280;4590;51.462;6.692;2022-11-20T00:20:32;101077.00;;;1.43;60.85
9110;BME280;4590;51.462;6.692;2022-11-20T00:22:58;101068.88;;;1.43;61.35
9110;BME280;4590;51.462;6.692;2022-11-20T00:25:23;101077.00;;;1.43;60.87
9110;BME280;4590;51.462;6.692;2022-11-20T00:27:48;101079.25;;;1.46;61.29
9110;BME280;4590;51.462;6.692;2022-11-20T00:30:13;101078.78;;;1.49;61.20
9110;BME280;4590;51.462;6.692;2022-11-20T00:32:39;101075.84;;;1.51;61.23
9110;BME280;4590;51.462;6.692;2022-11-20T00:35:04;101072.41;;;1.55;61.41
9110;BME280;4590;51.462;6.692;2022-11-20T00:37:30;101077.09;;;1.60;61.13
9110;BME280;4590;51.462;6.692;2022-11-20T00:39:55;101072.50;;;1.60;61.24
9110;BME280;4590;51.462;6.692;2022-11-20T00:42:21;101070.38;;;1.62;61.25
9110;BME280;4590;51.462;6.692;2022-11-20T00:44:46;101061.19;;;1.63;61.30
9110;BME280;4590;51.462;6.692;2022-11-20T00:47:11;101064.47;;;1.65;61.08
9110;BME280;4590;51.462;6.692;2022-11-20T00:49:36;101062.34;;;1.67;60.86
9110;BME280;4590;51.462;6.692;2022-11-20T00:52:02;101060.47;;;1.68;61.24
9110;BME280;4590;51.462;6.692;2022-11-20T00:54:27;101058.59;;;1.68;60.95
9110;BME280;4590;51.462;6.692;2022-11-20T00:56:53;101058.09;;;1.71;60.87
9110;BME280;4590;51.462;6.692;2022-11-20T00:59:18;101050.53;;;1.73;61.35
9110;BME280;4590;51.462;6.692;2022-11-20T01:01:44;101063.63;;;1.76;61.13
9110;BME280;4590;51.462;6.692;2022-11-20T01:04:09;101055.25;;;1.78;61.03
9110;BME280;4590;51.462;6.692;2022-11-20T01:06:37;101046.28;;;1.77;61.16
9110;BME280;4590;51.462;6.692;2022-11-20T01:09:05;101047.34;;;1.76;60.66
9110;BME280;4590;51.462;6.692;2022-11-20T01:11:33;101043.22;;;1.74;60.68
9110;BME280;4590;51.462;6.692;2022-11-20T01:14:01;101045.38;;;1.72;60.87
9110;BME280;4590;51.462;6.692;2022-11-20T01:16:35;101040.66;;;1.67;60.90
9110;BME280;4590;51.462;6.692;2022-11-20T01:19:04;101041.25;;;1.69;61.55
9110;BME280;4590;51.462;6.692;2022-11-20T01:21:32;101036.06;;;1.68;61.43
9110;BME280;4590;51.462;6.692;2022-11-20T01:23:58;101037.34;;;1.65;61.42
9110;BME280;4590;51.462;6.692;2022-11-20T01:26:25;101037.81;;;1.62;61.28
9110;BME280;4590;51.462;6.692;2022-11-20T01:28:52;101036.41;;;1.60;61.69
9110;BME280;4590;51.462;6.692;2022-11-20T01:31:19;101050.59;;;1.50;62.53
9110;BME280;4590;51.462;6.692;2022-11-20T01:33:46;101049.97;;;1.60;61.61
9110;BME280;4590;51.462;6.692;2022-11-20T01:36:13;101044.31;;;1.61;61.62
9110;BME280;4590;51.462;6.692;2022-11-20T01:38:39;101040.66;;;1.67;61.47
9110;BME280;4590;51.462;6.692;2022-11-20T01:41:05;101031.22;;;1.70;61.88
9110;BME280;4590;51.462;6.692;2022-11-20T01:43:31;101031.53;;;1.73;61.87
9110;BME280;4590;51.462;6.692;2022-11-20T01:46:16;101023.97;;;1.75;61.56
9110;BME280;4590;51.462;6.692;2022-11-20T01:51:41;101030.59;;;1.80;61.57
9110;BME280;4590;51.462;6.692;2022-11-20T01:54:21;101035.53;;;1.83;62.47
9110;BME280;4590;51.462;6.692;2022-11-20T01:56:51;101039.19;;;1.88;62.41
9110;BME280;4590;51.462;6.692;2022-11-20T01:59:18;101030.09;;;1.83;61.88
9110;BME280;4590;51.462;6.692;2022-11-20T02:01:44;101025.97;;;1.80;61.55
9110;BME280;4590;51.462;6.692;2022-11-20T02:04:10;101019.06;;;1.72;61.80
9110;BME280;4590;51.462;6.692;2022-11-20T02:06:42;101029.56;;;1.69;62.25
9110;BME280;4590;51.462;6.692;2022-11-20T02:09:08;101028.25;;;1.71;62.25
9110;BME280;4590;51.462;6.692;2022-11-20T02:11:34;101019.63;;;1.74;62.55
9110;BME280;4590;51.462;6.692;2022-11-20T02:13:59;101017.03;;;1.80;62.40
9110;BME280;4590;51.462;6.692;2022-11-20T02:16:27;101013.81;;;1.83;62.47
9110;BME280;4590;51.462;6.692;2022-11-20T02:18:55;101018.78;;;1.86;62.70
9110;BME280;4590;51.462;6.692;2022-11-20T02:24:06;101014.84;;;1.93;62.57
9110;BME280;4590;51.462;6.692;2022-11-20T02:26:39;101008.59;;;1.93;62.72
9110;BME280;4590;51.462;6.692;2022-11-20T02:29:06;101009.16;;;1.95;62.69
9110;BME280;4590;51.462;6.692;2022-11-20T02:31:40;101005.03;;;1.92;62.23
9110;BME280;4590;51.462;6.692;2022-11-20T02:34:06;101011.66;;;1.96;62.65
9110;BME280;4590;51.462;6.692;2022-11-20T02:36:33;101008.09;;;1.96;62.65
9110;BME280;4590;51.462;6.692;2022-11-20T02:39:00;101004.31;;;1.97;62.68
9110;BME280;4590;51.462;6.692;2022-11-20T02:41:35;101000.78;;;1.96;62.52
9110;BME280;4590;51.462;6.692;2022-11-20T02:44:01;101001.97;;;2.00;62.79
9110;BME280;4590;51.462;6.692;2022-11-20T02:46:26;101001.47;;;2.03;63.11
9110;BME280;4590;51.462;6.692;2022-11-20T02:48:52;100992.59;;;2.08;62.31
9110;BME280;4590;51.462;6.692;2022-11-20T02:51:17;100998.59;;;2.10;63.02
9110;BME280;4590;51.462;6.692;2022-11-20T02:53:42;101000.81;;;2.13;62.23
9110;BME280;4590;51.462;6.692;2022-11-20T02:56:08;100997.03;;;2.14;62.59
9110;BME280;4590;51.462;6.692;2022-11-20T02:58:33;100994.66;;;2.18;63.10
9110;BME280;4590;51.462;6.692;2022-11-20T03:00:58;100986.53;;;2.18;62.93
9110;BME280;4590;51.462;6.692;2022-11-20T03:03:23;100989.00;;;2.19;62.82
9110;BME280;4590;51.462;6.692;2022-11-20T03:05:49;100992.25;;;2.21;62.84
9110;BME280;4590;51.462;6.692;2022-11-20T03:08:14;100985.28;;;2.25;62.60
9110;BME280;4590;51.462;6.692;2022-11-20T03:10:39;100990.47;;;2.27;62.73
9110;BME280;4590;51.462;6.692;2022-11-20T03:13:04;100985.88;;;2.27;62.46
9110;BME280;4590;51.462;6.692;2022-11-20T03:15:30;100982.91;;;2.29;62.76
9110;BME280;4590;51.462;6.692;2022-11-20T03:17:55;100994.34;;;2.31;63.14
9110;BME280;4590;51.462;6.692;2022-11-20T03:20:21;100995.25;;;2.36;62.89
9110;BME280;4590;51.462;6.692;2022-11-20T03:22:46;100991.56;;;2.42;63.42
9110;BME280;4590;51.462;6.692;2022-11-20T03:25:12;100986.13;;;2.42;63.28
9110;BME280;4590;51.462;6.692;2022-11-20T03:27:37;100987.88;;;2.49;63.43
9110;BME280;4590;51.462;6.692;2022-11-20T03:30:03;100983.25;;;2.49;63.37
9110;BME280;4590;51.462;6.692;2022-11-20T03:32:29;100984.31;;;2.48;63.48
9110;BME280;4590;51.462;6.692;2022-11-20T03:34:54;100984.56;;;2.46;63.30
9110;BME280;4590;51.462;6.692;2022-11-20T03:37:19;100995.44;;;2.46;63.22
9110;BME280;4590;51.462;6.692;2022-11-20T03:39:44;100982.69;;;2.47;63.33
9110;BME280;4590;51.462;6.692;2022-11-20T03:42:10;100983.84;;;2.51;63.28
9110;BME280;4590;51.462;6.692;2022-11-20T03:44:54;100985.78;;;2.56;63.16
9110;BME280;4590;51.462;6.692;2022-11-20T03:47:19;100982.59;;;2.59;63.58
9110;BME280;4590;51.462;6.692;2022-11-20T03:49:45;100976.16;;;2.65;63.62
9110;BME280;4590;51.462;6.692;2022-11-20T03:52:10;100973.75;;;2.68;63.96
9110;BME280;4590;51.462;6.692;2022-11-20T03:54:35;100977.38;;;2.74;63.60
9110;BME280;4590;51.462;6.692;2022-11-20T03:57:00;100976.06;;;2.76;63.62
9110;BME280;4590;51.462;6.692;2022-11-20T03:59:26;100974.50;;;2.80;63.82
9110;BME280;4590;51.462;6.692;2022-11-20T04:01:51;100965.59;;;2.85;63.43
9110;BME280;4590;51.462;6.692;2022-11-20T04:04:16;100974.06;;;2.89;63.27
9110;BME280;4590;51.462;6.692;2022-11-20T04:06:42;100972.50;;;2.93;63.88
9110;BME280;4590;51.462;6.692;2022-11-20T04:09:07;100970.38;;;2.95;63.98
9110;BME280;4590;51.462;6.692;2022-11-20T04:11:34;100965.25;;;2.98;63.70
9110;BME280;4590;51.462;6.692;2022-11-20T04:14:02;100969.34;;;3.01;63.63
9110;BME280;4590;51.462;6.692;2022-11-20T04:16:34;100967.69;;;3.00;63.73
9110;BME280;4590;51.462;6.692;2022-11-20T04:19:02;100967.19;;;3.03;63.55
9110;BME280;4590;51.462;6.692;2022-11-20T04:21:28;100960.13;;;3.02;63.34
9110;BME280;4590;51.462;6.692;2022-11-20T04:23:54;100962.84;;;3.02;63.69
9110;BME280;4590;51.462;6.692;2022-11-20T04:26:21;100962.59;;;3.03;63.82
9110;BME280;4590;51.462;6.692;2022-11-20T04:28:47;100964.22;;;3.04;63.74
9110;BME280;4590;51.462;6.692;2022-11-20T04:31:20;100964.22;;;3.04;63.40
9110;BME280;4590;51.462;6.692;2022-11-20T04:33:46;100966.47;;;3.07;63.66
9110;BME280;4590;51.462;6.692;2022-11-20T04:36:14;100967.03;;;3.09;64.07
9110;BME280;4590;51.462;6.692;2022-11-20T04:38:40;100968.44;;;3.12;63.68
9110;BME280;4590;51.462;6.692;2022-11-20T04:41:09;100972.22;;;3.11;63.32
9110;BME280;4590;51.462;6.692;2022-11-20T04:43:37;100964.63;;;3.13;64.06
9110;BME280;4590;51.462;6.692;2022-11-20T04:46:02;100972.78;;;3.13;63.72
9110;BME280;4590;51.462;6.692;2022-11-20T04:48:28;100972.53;;;3.14;63.39
9110;BME280;4590;51.462;6.692;2022-11-20T04:50:54;100970.91;;;3.13;63.47
9110;BME280;4590;51.462;6.692;2022-11-20T04:53:21;100971.97;;;3.12;63.38
9110;BME280;4590;51.462;6.692;2022-11-20T04:55:46;100968.69;;;3.10;63.31
9110;BME280;4590;51.462;6.692;2022-11-20T04:58:12;100963.25;;;3.10;63.31
9110;BME280;4590;51.462;6.692;2022-11-20T05:00:37;100961.59;;;3.09;63.39
9110;BME280;4590;51.462;6.692;2022-11-20T05:03:03;100959.94;;;3.08;63.96
9110;BME280;4590;51.462;6.692;2022-11-20T05:05:28;100972.47;;;3.09;63.40
9110;BME280;4590;51.462;6.692;2022-11-20T05:07:56;100962.91;;;3.07;63.80
9110;BME280;4590;51.462;6.692;2022-11-20T05:10:22;100962.66;;;3.08;63.58
9110;BME280;4590;51.462;6.692;2022-11-20T05:12:47;100964.56;;;3.08;64.03
9110;BME280;4590;51.462;6.692;2022-11-20T05:15:13;100967.03;;;3.09;63.62
9110;BME280;4590;51.462;6.692;2022-11-20T05:17:38;100960.53;;;3.10;63.64
9110;BME280;4590;51.462;6.692;2022-11-20T05:20:03;100963.00;;;3.12;63.57
9110;BME280;4590;51.462;6.692;2022-11-20T05:22:29;100967.34;;;3.13;63.77
9110;BME280;4590;51.462;6.692;2022-11-20T05:24:54;100969.81;;;3.14;63.69
9110;BME280;4590;51.462;6.692;2022-11-20T05:27:19;100967.66;;;3.16;63.90
9110;BME280;4590;51.462;6.692;2022-11-20T05:29:45;100956.78;;;3.16;62.83
9110;BME280;4590;51.462;6.692;2022-11-20T05:32:10;100951.91;;;3.18;63.47
9110;BME280;4590;51.462;6.692;2022-11-20T05:34:35;100950.00;;;3.19;63.25
9110;BME280;4590;51.462;6.692;2022-11-20T05:37:02;100951.66;;;3.20;63.64
9110;BME280;4590;51.462;6.692;2022-11-20T05:39:27;100949.19;;;3.18;62.75
9110;BME280;4590;51.462;6.692;2022-11-20T05:41:52;100955.13;;;3.15;62.76
9110;BME280;4590;51.462;6.692;2022-11-20T05:44:38;100960.28;;;3.12;62.62
9110;BME280;4590;51.462;6.692;2022-11-20T05:47:03;100960.78;;;3.09;63.44
9110;BME280;4590;51.462;6.692;2022-11-20T05:49:28;100952.38;;;3.10;63.22
9110;BME280;4590;51.462;6.692;2022-11-20T05:51:53;100953.44;;;3.09;63.12
9110;BME280;4590;51.462;6.692;2022-11-20T05:54:19;100952.13;;;3.12;63.41
9110;BME280;4590;51.462;6.692;2022-11-20T05:56:44;100948.88;;;3.15;63.17
9110;BME280;4590;51.462;6.692;2022-11-20T05:59:09;100943.72;;;3.13;63.13
9110;BME280;4590;51.462;6.692;2022-11-20T06:01:34;100946.69;;;3.12;62.93
9110;BME280;4590;51.462;6.692;2022-11-20T06:04:01;100940.91;;;3.08;63.34
9110;BME280;4590;51.462;6.692;2022-11-20T06:06:26;100940.59;;;3.05;63.10
9110;BME280;4590;51.462;6.692;2022-11-20T06:08:51;100939.19;;;3.02;63.12
9110;BME280;4590;51.462;6.692;2022-11-20T06:11:17;100942.97;;;3.01;62.71
9110;BME280;4590;51.462;6.692;2022-11-20T06:13:43;100942.97;;;3.01;63.23
9110;BME280;4590;51.462;6.692;2022-11-20T06:16:09;100941.34;;;3.00;63.25
9110;BME280;4590;51.462;6.692;2022-11-20T06:18:35;100949.25;;;3.02;63.23
9110;BME280;4590;51.462;6.692;2022-11-20T06:21:02;100940.50;;;3.00;62.91
9110;BME280;4590;51.462;6.692;2022-11-20T06:23:32;100941.34;;;3.00;63.11
9110;BME280;4590;51.462;6.692;2022-11-20T06:26:07;100944.63;;;3.02;63.04
9110;BME280;4590;51.462;6.692;2022-11-20T06:28:33;100950.97;;;3.08;63.25
9110;BME280;4590;51.462;6.692;2022-11-20T06:30:59;100952.38;;;3.10;63.21
9110;BME280;4590;51.462;6.692;2022-11-20T06:33:24;100949.16;;;3.13;63.07
9110;BME280;4590;51.462;6.692;2022-11-20T06:35:51;100961.13;;;3.17;63.51
9110;BME280;4590;51.462;6.692;2022-11-20T06:38:16;100956.03;;;3.21;63.44
9110;BME280;4590;51.462;6.692;2022-11-20T06:40:42;100959.31;;;3.23;63.26
9110;BME280;4590;51.462;6.692;2022-11-20T06:43:09;100968.88;;;3.26;63.55
9110;BME280;4590;51.462;6.692;2022-11-20T06:45:34;100953.97;;;3.28;63.87
9110;BME280;4590;51.462;6.692;2022-11-20T06:48:00;100962.69;;;3.30;63.30
9110;BME280;4590;51.462;6.692;2022-11-20T06:50:25;100963.22;;;3.32;63.10
9110;BME280;4590;51.462;6.692;2022-11-20T06:52:50;100964.88;;;3.33;63.37
9110;BME280;4590;51.462;6.692;2022-11-20T06:55:15;100969.81;;;3.36;63.64
9110;BME280;4590;51.462;6.692;2022-11-20T06:57:41;100964.94;;;3.38;63.48
9110;BME280;4590;51.462;6.692;2022-11-20T07:00:06;100971.78;;;3.41;63.41
9110;BME280;4590;51.462;6.692;2022-11-20T07:02:32;100975.06;;;3.43;63.77
9110;BME280;4590;51.462;6.692;2022-11-20T07:04:57;100982.41;;;3.42;63.41
9110;BME280;4590;51.462;6.692;2022-11-20T07:07:22;100979.44;;;3.44;63.62
9110;BME280;4590;51.462;6.692;2022-11-20T07:09:47;100979.44;;;3.44;63.48
9110;BME280;4590;51.462;6.692;2022-11-20T07:12:13;100983.81;;;3.45;63.92
9110;BME280;4590;51.462;6.692;2022-11-20T07:14:38;100981.09;;;3.45;63.95
9110;BME280;4590;51.462;6.692;2022-11-20T07:17:03;100981.91;;;3.45;63.73
9110;BME280;4590;51.462;6.692;2022-11-20T07:19:28;100977.81;;;3.43;63.62
9110;BME280;4590;51.462;6.692;2022-11-20T07:21:54;100971.28;;;3.44;63.92
9110;BME280;4590;51.462;6.692;2022-11-20T07:24:19;100979.19;;;3.45;63.77
9110;BME280;4590;51.462;6.692;2022-11-20T07:26:47;100975.34;;;3.41;63.41
9110;BME280;4590;51.462;6.692;2022-11-20T07:29:14;100981.91;;;3.45;64.06
9110;BME280;4590;51.462;6.692;2022-11-20T07:31:39;100971.56;;;3.47;63.70
9110;BME280;4590;51.462;6.692;2022-11-20T07:34:05;100970.00;;;3.51;64.29
9110;BME280;4590;51.462;6.692;2022-11-20T07:36:30;100961.34;;;3.55;63.91
9110;BME280;4590;51.462;6.692;2022-11-20T07:38:55;100972.28;;;3.60;64.12
9110;BME280;4590;51.462;6.692;2022-11-20T07:41:21;100963.34;;;3.64;64.23
9110;BME280;4590;51.462;6.692;2022-11-20T07:43:46;100963.41;;;3.69;64.31
9110;BME280;4590;51.462;6.692;2022-11-20T07:46:11;100962.66;;;3.74;64.32
9110;BME280;4590;51.462;6.692;2022-11-20T07:48:36;100957.53;;;3.77;64.01
9110;BME280;4590;51.462;6.692;2022-11-20T07:51:02;100962.19;;;3.82;63.93
9110;BME280;4590;51.462;6.692;2022-11-20T07:53:27;100961.66;;;3.85;64.03
9110;BME280;4590;51.462;6.692;2022-11-20T07:55:52;100958.44;;;3.88;63.87
9110;BME280;4590;51.462;6.692;2022-11-20T07:58:18;100952.50;;;3.91;64.03
9110;BME280;4590;51.462;6.692;2022-11-20T08:00:45;100942.97;;;3.94;64.45
9110;BME280;4590;51.462;6.692;2022-11-20T08:03:10;100939.16;;;3.95;64.14
9110;BME280;4590;51.462;6.692;2022-11-20T08:05:35;100945.19;;;3.97;63.91
9110;BME280;4590;51.462;6.692;2022-11-20T08:08:00;100943.84;;;3.99;64.47
9110;BME280;4590;51.462;6.692;2022-11-20T08:10:26;100940.88;;;4.01;63.88
9110;BME280;4590;51.462;6.692;2022-11-20T08:12:52;100940.59;;;4.02;63.85
9110;BME280;4590;51.462;6.692;2022-11-20T08:15:37;100945.81;;;4.04;64.19
9110;BME280;4590;51.462;6.692;2022-11-20T08:18:09;100953.97;;;4.04;63.78
9110;BME280;4590;51.462;6.692;2022-11-20T08:20:35;100955.63;;;4.05;64.27
9110;BME280;4590;51.462;6.692;2022-11-20T08:23:02;100954.53;;;4.06;64.09
9110;BME280;4590;51.462;6.692;2022-11-20T08:25:29;100956.47;;;4.10;64.49
9110;BME280;4590;51.462;6.692;2022-11-20T08:27:58;100952.31;;;4.03;64.36
9110;BME280;4590;51.462;6.692;2022-11-20T08:30:24;100963.31;;;4.13;64.31
9110;BME280;4590;51.462;6.692;2022-11-20T08:32:50;100955.44;;;4.16;64.17
9110;BME280;4590;51.462;6.692;2022-11-20T08:35:15;100951.94;;;4.21;64.46
9110;BME280;4590;51.462;6.692;2022-11-20T08:37:40;100955.53;;;4.27;63.92
9110;BME280;4590;51.462;6.692;2022-11-20T08:40:10;100962.94;;;4.31;64.12
9110;BME280;4590;51.462;6.692;2022-11-20T08:42:36;100952.66;;;4.38;63.86
9110;BME280;4590;51.462;6.692;2022-11-20T08:45:01;100965.22;;;4.44;63.79
9110;BME280;4590;51.462;6.692;2022-11-20T08:47:27;100958.16;;;4.48;64.31
9110;BME280;4590;51.462;6.692;2022-11-20T08:49:52;100950.88;;;4.54;63.73
9110;BME280;4590;51.462;6.692;2022-11-20T08:52:17;100957.47;;;4.63;64.02
9110;BME280;4590;51.462;6.692;2022-11-20T08:54:42;100957.56;;;4.78;64.03
9110;BME280;4590;51.462;6.692;2022-11-20T08:57:08;100955.72;;;4.89;63.81
9110;BME280;4590;51.462;6.692;2022-11-20T08:59:33;100945.97;;;4.98;63.81
9110;BME280;4590;51.462;6.692;2022-11-20T09:01:58;100941.91;;;5.06;63.14
9110;BME280;4590;51.462;6.692;2022-11-20T09:04:23;100936.25;;;5.17;63.04
9110;BME280;4590;51.462;6.692;2022-11-20T09:06:49;100942.56;;;5.28;63.42
9110;BME280;4590;51.462;6.692;2022-11-20T09:09:17;100934.69;;;5.32;62.45
9110;BME280;4590;51.462;6.692;2022-11-20T09:11:43;100944.00;;;5.46;63.20
9110;BME280;4590;51.462;6.692;2022-11-20T09:14:08;100943.53;;;5.64;63.20
9110;BME280;4590;51.462;6.692;2022-11-20T09:16:33;100944.63;;;5.83;63.46
9110;BME280;4590;51.462;6.692;2022-11-20T09:18:59;100929.16;;;6.04;62.78
9110;BME280;4590;51.462;6.692;2022-11-20T09:21:24;100929.97;;;6.20;62.27
9110;BME280;4590;51.462;6.692;2022-11-20T09:23:49;100932.97;;;6.33;62.18
9110;BME280;4590;51.462;6.692;2022-11-20T09:26:15;100931.06;;;6.49;62.23
9110;BME280;4590;51.462;6.692;2022-11-20T09:28:40;100927.22;;;6.65;61.62
9110;BME280;4590;51.462;6.692;2022-11-20T09:31:17;100925.28;;;6.81;61.15
9110;BME280;4590;51.462;6.692;2022-11-20T09:33:44;100923.06;;;6.98;60.71
9110;BME280;4590;51.462;6.692;2022-11-20T09:36:10;100918.91;;;7.11;60.31
9110;BME280;4590;51.462;6.692;2022-11-20T09:38:35;100912.03;;;7.19;60.08
9110;BME280;4590;51.462;6.692;2022-11-20T09:41:05;100901.31;;;7.27;59.94
9110;BME280;4590;51.462;6.692;2022-11-20T09:43:41;100899.09;;;7.39;60.05
9110;BME280;4590;51.462;6.692;2022-11-20T09:46:20;100894.13;;;7.42;58.71
9110;BME280;4590;51.462;6.692;2022-11-20T09:49:06;100893.28;;;7.51;59.03
9110;BME280;4590;51.462;6.692;2022-11-20T09:51:57;100905.59;;;7.54;58.44
9110;BME280;4590;51.462;6.692;2022-11-20T09:54:29;100897.63;;;7.57;58.40
9110;BME280;4590;51.462;6.692;2022-11-20T09:56:59;100899.53;;;7.57;58.17
9110;BME280;4590;51.462;6.692;2022-11-20T09:59:45;100898.47;;;7.53;57.57
9110;BME280;4590;51.462;6.692;2022-11-20T10:05:27;100906.97;;;7.51;57.57
9110;BME280;4590;51.462;6.692;2022-11-20T10:08:28;100900.13;;;7.49;57.25
9110;BME280;4590;51.462;6.692;2022-11-20T10:11:12;100898.22;;;7.44;57.79
9110;BME280;4590;51.462;6.692;2022-11-20T10:19:21;100887.41;;;7.24;58.03
9110;BME280;4590;51.462;6.692;2022-11-20T10:30:03;100868.81;;;7.21;58.35
9110;BME280;4590;51.462;6.692;2022-11-20T10:32:36;100868.81;;;7.21;57.95
9110;BME280;4590;51.462;6.692;2022-11-20T10:37:51;100853.50;;;7.15;58.17
9110;BME280;4590;51.462;6.692;2022-11-20T10:40:29;100857.34;;;7.14;57.73
9110;BME280;4590;51.462;6.692;2022-11-20T10:42:57;100849.44;;;7.07;58.12
9110;BME280;4590;51.462;6.692;2022-11-20T10:47:56;100850.47;;;7.16;58.84
9110;BME280;4590;51.462;6.692;2022-11-20T10:50:23;100863.06;;;7.17;58.70
9110;BME280;4590;51.462;6.692;2022-11-20T10:53:07;100848.31;;;7.13;58.69
9110;BME280;4590;51.462;6.692;2022-11-20T10:55:50;100838.44;;;7.12;58.37
9110;BME280;4590;51.462;6.692;2022-11-20T10:58:42;100836.88;;;7.01;59.50
9110;BME280;4590;51.462;6.692;2022-11-20T11:01:15;100841.25;;;7.02;59.54
9110;BME280;4590;51.462;6.692;2022-11-20T11:03:41;100841.22;;;7.07;59.92
9110;BME280;4590;51.462;6.692;2022-11-20T11:06:36;100838.25;;;6.93;60.68
9110;BME280;4590;51.462;6.692;2022-11-20T11:09:04;100832.78;;;6.98;59.79
9110;BME280;4590;51.462;6.692;2022-11-20T11:11:34;100818.88;;;6.90;60.30
9110;BME280;4590;51.462;6.692;2022-11-20T11:14:09;100823.25;;;6.86;60.27
9110;BME280;4590;51.462;6.692;2022-11-20T11:16:35;100816.34;;;6.98;60.85
9110;BME280;4590;51.462;6.692;2022-11-20T11:19:11;100813.34;;;6.95;60.44
9110;BME280;4590;51.462;6.692;2022-11-20T11:21:37;100804.94;;;6.86;60.65
9110;BME280;4590;51.462;6.692;2022-11-20T11:24:36;100801.44;;;6.65;60.70
9110;BME280;4590;51.462;6.692;2022-11-20T11:27:04;100789.41;;;6.61;61.00
9110;BME280;4590;51.462;6.692;2022-11-20T11:29:35;100787.50;;;6.72;60.58
9110;BME280;4590;51.462;6.692;2022-11-20T11:32:11;100786.47;;;6.48;60.81
9110;BME280;4590;51.462;6.692;2022-11-20T11:34:37;100774.69;;;6.52;62.12
9110;BME280;4590;51.462;6.692;2022-11-20T11:37:04;100767.59;;;6.46;61.46
9110;BME280;4590;51.462;6.692;2022-11-20T11:39:35;100779.88;;;6.59;60.65
9110;BME280;4590;51.462;6.692;2022-11-20T11:42:01;100767.56;;;6.61;61.48
9110;BME280;4590;51.462;6.692;2022-11-20T11:44:34;100761.31;;;6.56;61.19
9110;BME280;4590;51.462;6.692;2022-11-20T11:47:23;100756.09;;;6.59;61.82
9110;BME280;4590;51.462;6.692;2022-11-20T11:52:56;100736.97;;;6.54;61.66
9110;BME280;4590;51.462;6.692;2022-11-20T11:55:29;100736.97;;;6.59;61.28
9110;BME280;4590;51.462;6.692;2022-11-20T12:03:59;100729.19;;;6.07;63.22
9110;BME280;4590;51.462;6.692;2022-11-20T12:06:28;100729.97;;;6.23;62.62
9110;BME280;4590;51.462;6.692;2022-11-20T12:08:59;100733.00;;;6.16;62.99
9110;BME280;4590;51.462;6.692;2022-11-20T12:14:18;100732.16;;;6.16;63.51
9110;BME280;4590;51.462;6.692;2022-11-20T12:16:48;100723.97;;;6.26;62.78
9110;BME280;4590;51.462;6.692;2022-11-20T12:19:15;100719.03;;;6.28;63.05
9110;BME280;4590;51.462;6.692;2022-11-20T12:24:44;100712.50;;;6.29;63.09
9110;BME280;4590;51.462;6.692;2022-11-20T12:29:48;100713.00;;;6.36;62.84
9110;BME280;4590;51.462;6.692;2022-11-20T12:41:15;100703.69;;;6.37;62.78
9110;BME280;4590;51.462;6.692;2022-11-20T12:47:21;100690.78;;;6.58;62.43
9110;BME280;4590;51.462;6.692;2022-11-20T12:53:04;100674.94;;;6.55;62.39
9110;BME280;4590;51.462;6.692;2022-11-20T13:04:15;100644.59;;;6.46;63.02
9110;BME280;4590;51.462;6.692;2022-11-20T13:06:43;100643.22;;;6.54;63.09
9110;BME280;4590;51.462;6.692;2022-11-20T13:09:13;100650.81;;;6.62;62.72
9110;BME280;4590;51.462;6.692;2022-11-20T13:14:42;100642.97;;;6.50;64.16
9110;BME280;4590;51.462;6.692;2022-11-20T13:17:14;100638.28;;;6.56;63.77
9110;BME280;4590;51.462;6.692;2022-11-20T13:19:53;100632.25;;;6.59;63.52
9110;BME280;4590;51.462;6.692;2022-11-20T13:22:26;100626.16;;;6.23;66.78
9110;BME280;4590;51.462;6.692;2022-11-20T13:24:52;100615.25;;;6.18;65.96
9110;BME280;4590;51.462;6.692;2022-11-20T13:27:19;100616.25;;;6.32;65.87
9110;BME280;4590;51.462;6.692;2022-11-20T13:29:58;100602.97;;;6.15;66.43
9110;BME280;4590;51.462;6.692;2022-11-20T13:32:26;100602.09;;;6.25;66.35
9110;BME280;4590;51.462;6.692;2022-11-20T13:35:01;100615.03;;;6.09;67.79
9110;BME280;4590;51.462;6.692;2022-11-20T13:37:32;100596.94;;;6.18;66.77
9110;BME280;4590;51.462;6.692;2022-11-20T13:40:24;100585.56;;;5.86;68.96
9110;BME280;4590;51.462;6.692;2022-11-20T13:43:07;100585.25;;;6.03;67.38
9110;BME280;4590;51.462;6.692;2022-11-20T13:45:35;100589.91;;;6.02;67.51
9110;BME280;4590;51.462;6.692;2022-11-20T13:48:15;100586.34;;;6.02;67.51
9110;BME280;4590;51.462;6.692;2022-11-20T14:01:45;100547.03;;;6.03;68.85
9110;BME280;4590;51.462;6.692;2022-11-20T14:04:14;100554.22;;;5.78;71.54
9110;BME280;4590;51.462;6.692;2022-11-20T14:06:42;100557.22;;;5.82;70.12
9110;BME280;4590;51.462;6.692;2022-11-20T14:09:13;100545.47;;;5.81;70.81
9110;BME280;4590;51.462;6.692;2022-11-20T14:11:49;100546.03;;;5.78;70.53
9110;BME280;4590;51.462;6.692;2022-11-20T14:14:19;100527.38;;;6.01;69.25
9110;BME280;4590;51.462;6.692;2022-11-20T14:16:46;100523.81;;;6.05;68.83
9110;BME280;4590;51.462;6.692;2022-11-20T14:21:47;100503.88;;;5.99;69.51
9110;BME280;4590;51.462;6.692;2022-11-20T14:24:13;100493.47;;;6.07;69.24
9110;BME280;4590;51.462;6.692;2022-11-20T14:26:45;100492.06;;;6.14;68.86
9110;BME280;4590;51.462;6.692;2022-11-20T14:29:17;100489.31;;;6.14;68.84
9110;BME280;4590;51.462;6.692;2022-11-20T14:31:48;100503.28;;;6.13;69.37
9110;BME280;4590;51.462;6.692;2022-11-20T14:34:22;100497.50;;;6.19;69.07
9110;BME280;4590;51.462;6.692;2022-11-20T14:36:48;100495.56;;;6.20;69.69
9110;BME280;4590;51.462;6.692;2022-11-20T14:39:22;100487.63;;;6.23;69.03
9110;BME280;4590;51.462;6.692;2022-11-20T14:41:51;100477.00;;;6.22;69.57
9110;BME280;4590;51.462;6.692;2022-11-20T14:44:17;100482.97;;;6.29;68.94
9110;BME280;4590;51.462;6.692;2022-11-20T14:46:43;100466.03;;;6.27;68.75
9110;BME280;4590;51.462;6.692;2022-11-20T14:49:10;100473.97;;;6.23;69.37
9110;BME280;4590;51.462;6.692;2022-11-20T14:51:38;100464.16;;;6.22;68.97
9110;BME280;4590;51.462;6.692;2022-11-20T14:54:20;100457.44;;;5.99;71.55